createdAt,value
2019-03-19T00:01:19.466Z,0.00
2019-03-19T00:06:16.585Z,0.00
2019-03-19T00:08:45.371Z,0.10
2019-03-19T00:11:16.362Z,0.00
2019-03-19T00:16:13.561Z,-0.10
2019-03-19T00:18:42.306Z,-0.10
2019-03-19T00:21:11.041Z,-0.20
2019-03-19T00:23:39.793Z,-0.20
2019-03-19T00:26:08.849Z,-0.10
2019-03-19T00:28:39.043Z,-0.10
2019-03-19T00:31:07.969Z,-0.10
2019-03-19T00:33:36.757Z,-0.10
2019-03-19T00:36:05.501Z,-0.10
2019-03-19T00:38:34.250Z,-0.10
2019-03-19T00:41:02.985Z,-0.10
2019-03-19T00:43:31.740Z,-0.10
2019-03-19T00:46:00.469Z,-0.20
2019-03-19T00:48:29.209Z,-0.20
2019-03-19T00:50:58.020Z,-0.20
2019-03-19T00:53:26.770Z,-0.20
2019-03-19T00:55:55.510Z,-0.30
2019-03-19T00:58:24.254Z,-0.30
2019-03-19T01:00:53.025Z,-0.30
2019-03-19T01:03:21.878Z,-0.30
2019-03-19T01:05:50.613Z,-0.30
2019-03-19T01:08:19.383Z,-0.30
2019-03-19T01:10:48.389Z,-0.30
2019-03-19T01:13:17.126Z,-0.40
2019-03-19T01:15:45.871Z,-0.30
2019-03-19T01:18:14.682Z,-0.30
2019-03-19T01:20:43.669Z,-0.30
2019-03-19T01:23:12.413Z,-0.40
2019-03-19T01:25:54.734Z,-0.40
2019-03-19T01:28:11.641Z,-0.30
2019-03-19T01:30:40.449Z,-0.30
2019-03-19T01:33:09.220Z,-0.20
2019-03-19T01:35:37.957Z,-0.30
2019-03-19T01:38:06.965Z,-0.30
2019-03-19T01:40:36.120Z,-0.30
2019-03-19T01:43:04.949Z,-0.30
2019-03-19T01:45:34.793Z,-0.30
2019-03-19T01:48:03.749Z,-0.30
2019-03-19T01:50:32.841Z,-0.30
2019-03-19T01:53:01.569Z,-0.40
2019-03-19T01:55:30.377Z,-0.40
2019-03-19T01:57:59.113Z,-0.40
2019-03-19T02:00:27.869Z,-0.50
2019-03-19T02:02:56.874Z,1.60
2019-03-19T02:07:54.018Z,-0.50
2019-03-19T02:10:23.004Z,-0.50
2019-03-19T02:12:51.733Z,-0.50
2019-03-19T02:15:20.626Z,-0.60
2019-03-19T02:17:49.355Z,-0.60
2019-03-19T02:20:18.171Z,-0.60
2019-03-19T02:22:47.058Z,-0.60
2019-03-19T02:25:15.915Z,-0.60
2019-03-19T02:27:44.637Z,-0.60
2019-03-19T02:30:13.643Z,-0.60
2019-03-19T02:32:42.398Z,-0.70
2019-03-19T02:35:11.144Z,-0.70
2019-03-19T02:37:39.880Z,-0.70
2019-03-19T02:40:09.101Z,-0.70
2019-03-19T02:45:06.326Z,-0.70
2019-03-19T02:47:35.090Z,-0.80
2019-03-19T02:50:04.367Z,-0.80
2019-03-19T02:52:33.106Z,-0.70
2019-03-19T02:55:01.856Z,-0.80
2019-03-19T02:57:30.659Z,-0.80
2019-03-19T02:59:59.634Z,-0.80
2019-03-19T03:02:28.395Z,-0.80
2019-03-19T03:04:57.146Z,-0.80
2019-03-19T03:07:25.875Z,-0.70
2019-03-19T03:09:54.623Z,-0.70
2019-03-19T03:12:23.385Z,-0.70
2019-03-19T03:14:52.210Z,-0.70
2019-03-19T03:17:20.943Z,-0.70
2019-03-19T03:19:49.703Z,-0.70
2019-03-19T03:22:19.005Z,-0.80
2019-03-19T03:24:48.019Z,-0.80
2019-03-19T03:27:17.016Z,-0.80
2019-03-19T03:29:45.750Z,-0.80
2019-03-19T03:32:14.502Z,-0.80
2019-03-19T03:34:43.234Z,-0.80
2019-03-19T03:39:40.512Z,-0.60
2019-03-19T03:42:09.664Z,-0.50
2019-03-19T03:44:38.578Z,-0.30
2019-03-19T03:47:07.328Z,-0.50
2019-03-19T03:49:36.071Z,-0.40
2019-03-19T03:52:04.994Z,-0.40
2019-03-19T03:54:33.773Z,-0.40
2019-03-19T03:57:03.021Z,-0.70
2019-03-19T03:59:31.933Z,-0.40
2019-03-19T04:02:00.927Z,-0.40
2019-03-19T04:04:29.666Z,-0.40
2019-03-19T04:06:58.485Z,-0.40
2019-03-19T04:09:27.231Z,-0.40
2019-03-19T04:11:55.978Z,-0.40
2019-03-19T04:14:24.719Z,-0.40
2019-03-19T04:16:53.520Z,-0.30
2019-03-19T04:19:22.270Z,-0.30
2019-03-19T04:21:51.047Z,-0.40
2019-03-19T04:24:19.799Z,-0.40
2019-03-19T04:26:48.608Z,-0.40
2019-03-19T04:29:17.427Z,-0.60
2019-03-19T04:31:46.167Z,-0.60
2019-03-19T04:34:15.157Z,-0.60
2019-03-19T04:36:43.898Z,-0.60
2019-03-19T04:39:12.791Z,-0.60
2019-03-19T04:41:41.525Z,-0.70
2019-03-19T04:44:10.262Z,-0.70
2019-03-19T04:46:39.005Z,-0.70
2019-03-19T04:49:07.757Z,-0.80
2019-03-19T04:51:36.497Z,-0.80
2019-03-19T04:54:05.360Z,-0.80
2019-03-19T04:59:02.413Z,-0.80
2019-03-19T05:01:31.147Z,0.40
2019-03-19T05:03:59.900Z,-0.80
2019-03-19T05:06:28.643Z,-0.90
2019-03-19T05:08:57.377Z,-0.90
2019-03-19T05:11:26.127Z,-1.00
2019-03-19T05:13:54.870Z,-1.00
2019-03-19T05:16:23.597Z,-1.00
2019-03-19T05:21:20.858Z,1.10
2019-03-19T05:23:49.592Z,-1.10
2019-03-19T05:26:18.329Z,-0.90
2019-03-19T05:28:47.344Z,-0.90
2019-03-19T05:31:16.175Z,-1.00
2019-03-19T05:36:33.018Z,-0.90
2019-03-19T05:39:01.817Z,-1.00
2019-03-19T05:41:30.549Z,-1.10
2019-03-19T05:43:59.307Z,-1.10
2019-03-19T05:46:28.297Z,-1.00
2019-03-19T05:48:57.041Z,-1.00
2019-03-19T05:51:26.033Z,-0.90
2019-03-19T05:53:54.780Z,-0.80
2019-03-19T05:56:23.521Z,-0.90
2019-03-19T05:58:52.257Z,-0.90
2019-03-19T06:01:21.033Z,-0.80
2019-03-19T06:03:50.010Z,-0.80
2019-03-19T06:06:18.997Z,-0.80
2019-03-19T06:08:47.746Z,-0.70
2019-03-19T06:11:16.477Z,-0.60
2019-03-19T06:13:45.214Z,-0.60
2019-03-19T06:16:14.193Z,-0.50
2019-03-19T06:18:42.942Z,-0.40
2019-03-19T06:21:11.966Z,-0.30
2019-03-19T06:23:40.707Z,-0.30
2019-03-19T06:26:09.521Z,-0.30
2019-03-19T06:28:38.266Z,-0.30
2019-03-19T06:31:07.078Z,-0.20
2019-03-19T06:33:37.085Z,-0.20
2019-03-19T06:36:05.833Z,-0.20
2019-03-19T06:38:34.576Z,-0.20
2019-03-19T06:41:03.378Z,-0.10
2019-03-19T06:43:32.109Z,-0.10
2019-03-19T06:46:00.837Z,0.00
2019-03-19T06:48:29.571Z,0.10
2019-03-19T06:50:58.401Z,0.30
2019-03-19T06:53:27.125Z,0.40
2019-03-19T06:55:55.871Z,0.70
2019-03-19T07:00:53.121Z,1.20
2019-03-19T07:03:22.161Z,1.60
2019-03-19T07:05:50.910Z,2.10
2019-03-19T07:08:19.638Z,2.20
2019-03-19T07:10:48.446Z,2.70
2019-03-19T07:13:17.201Z,2.60
2019-03-19T07:15:46.041Z,2.70
2019-03-19T07:18:14.791Z,3.70
2019-03-19T07:20:43.521Z,4.80
2019-03-19T07:23:12.288Z,6.70
2019-03-19T07:25:41.029Z,8.30
2019-03-19T07:28:09.938Z,9.10
2019-03-19T07:30:40.789Z,9.50
2019-03-19T07:33:09.393Z,9.70
2019-03-19T07:40:35.216Z,6.70
2019-03-19T07:48:00.772Z,4.80
2019-03-19T07:52:57.885Z,4.40
2019-03-19T07:55:26.657Z,4.10
2019-03-19T07:57:55.461Z,4.10
2019-03-19T08:00:24.589Z,4.20
2019-03-19T08:02:53.339Z,5.10
2019-03-19T08:05:32.223Z,6.50
2019-03-19T08:07:52.670Z,7.00
2019-03-19T08:10:21.586Z,6.80
2019-03-19T08:12:50.525Z,6.80
2019-03-19T08:15:19.517Z,6.60
2019-03-19T08:17:48.609Z,6.50
2019-03-19T08:20:17.449Z,5.60
2019-03-19T08:25:14.739Z,5.60
2019-03-19T08:27:43.477Z,5.60
2019-03-19T08:30:14.538Z,5.60
2019-03-19T08:32:43.354Z,6.30
2019-03-19T08:35:12.194Z,6.40
2019-03-19T08:37:40.962Z,6.70
2019-03-19T08:40:10.840Z,6.80
2019-03-19T08:42:39.673Z,6.90
2019-03-19T08:45:10.531Z,7.00
2019-03-19T08:47:39.306Z,7.30
2019-03-19T08:50:10.525Z,7.20
2019-03-19T08:52:39.591Z,7.20
2019-03-19T08:55:08.495Z,7.50
2019-03-19T08:57:37.273Z,7.60
2019-03-19T09:00:08.341Z,7.60
2019-03-19T09:02:37.078Z,7.50
2019-03-19T09:05:06.145Z,7.50
2019-03-19T09:07:35.134Z,7.50
2019-03-19T09:10:05.042Z,7.90
2019-03-19T09:12:33.786Z,7.90
2019-03-19T09:15:02.506Z,8.00
2019-03-19T09:17:31.255Z,8.00
2019-03-19T09:20:00.125Z,8.00
2019-03-19T09:22:29.845Z,8.00
2019-03-19T09:25:00.445Z,8.00
2019-03-19T09:27:29.249Z,8.20
2019-03-19T09:29:57.977Z,8.20
2019-03-19T09:32:26.793Z,8.10
2019-03-19T09:34:55.524Z,8.10
2019-03-19T09:37:24.265Z,8.10
2019-03-19T09:39:53.018Z,8.30
2019-03-19T09:42:21.788Z,8.20
2019-03-19T09:44:58.196Z,8.00
2019-03-19T09:47:21.016Z,7.90
2019-03-19T09:49:49.773Z,8.00
2019-03-19T09:52:18.528Z,8.10
2019-03-19T09:54:47.262Z,7.80
2019-03-19T09:57:16.000Z,7.80
2019-03-19T09:59:44.749Z,7.80
2019-03-19T10:02:13.557Z,7.90
2019-03-19T10:04:42.377Z,8.00
2019-03-19T10:07:11.229Z,8.20
2019-03-19T10:09:39.974Z,8.20
2019-03-19T10:12:08.762Z,8.60
2019-03-19T10:14:37.501Z,8.90
2019-03-19T10:17:06.315Z,9.00
2019-03-19T10:19:35.393Z,9.20
2019-03-19T10:22:04.378Z,9.10
2019-03-19T10:24:33.210Z,9.20
2019-03-19T10:27:01.937Z,9.20
2019-03-19T10:29:38.245Z,8.70
2019-03-19T10:32:01.137Z,8.70
2019-03-19T10:34:30.119Z,8.90
2019-03-19T10:36:58.845Z,8.70
2019-03-19T10:39:27.800Z,8.50
2019-03-19T10:41:56.546Z,8.30
2019-03-19T10:44:25.352Z,8.30
2019-03-19T10:46:54.221Z,8.40
2019-03-19T10:49:22.949Z,8.80
2019-03-19T10:51:51.729Z,8.80
2019-03-19T10:54:20.578Z,8.50
2019-03-19T10:56:49.312Z,8.40
2019-03-19T10:59:18.062Z,8.40
2019-03-19T11:01:46.905Z,8.60
2019-03-19T11:04:15.885Z,8.80
2019-03-19T11:06:45.072Z,8.90
2019-03-19T11:09:13.882Z,9.00
2019-03-19T11:11:42.861Z,8.90
2019-03-19T11:14:11.580Z,8.90
2019-03-19T11:16:40.401Z,8.90
2019-03-19T11:19:09.203Z,8.90
2019-03-19T11:21:37.926Z,9.00
2019-03-19T11:24:06.658Z,9.00
2019-03-19T11:26:35.553Z,8.90
2019-03-19T11:29:04.582Z,8.90
2019-03-19T11:31:33.493Z,8.80
2019-03-19T11:44:17.001Z,8.50
2019-03-19T11:46:45.897Z,8.60
2019-03-19T11:49:14.640Z,8.80
2019-03-19T11:51:43.378Z,8.90
2019-03-19T11:56:40.669Z,8.90
2019-03-19T11:59:09.408Z,8.90
2019-03-19T12:01:38.262Z,8.90
2019-03-19T12:04:07.117Z,8.70
2019-03-19T12:06:35.873Z,8.80
2019-03-19T12:09:07.670Z,8.80
2019-03-19T12:11:36.488Z,8.80
2019-03-19T12:14:05.317Z,8.90
2019-03-19T12:16:34.129Z,8.80
2019-03-19T12:19:02.862Z,8.70
2019-03-19T12:23:59.889Z,8.90
2019-03-19T12:26:28.749Z,8.80
2019-03-19T12:28:57.675Z,8.90
2019-03-19T12:31:26.418Z,8.90
2019-03-19T12:33:55.259Z,9.00
2019-03-19T12:38:52.685Z,9.20
2019-03-19T12:41:21.652Z,9.20
2019-03-19T12:48:47.123Z,9.10
2019-03-19T12:53:44.357Z,9.30
2019-03-19T12:56:13.265Z,9.30
2019-03-19T13:01:10.843Z,9.30
2019-03-19T13:03:39.726Z,9.40
2019-03-19T13:06:08.620Z,9.20
2019-03-19T13:11:06.158Z,9.20
2019-03-19T13:18:31.493Z,9.50
2019-03-19T13:21:00.649Z,9.80
2019-03-19T13:23:29.462Z,9.60
2019-03-19T13:25:58.382Z,9.40
2019-03-19T13:28:27.397Z,9.40
2019-03-19T13:30:56.250Z,9.50
2019-03-19T13:33:25.233Z,9.50
2019-03-19T13:40:50.801Z,9.70
2019-03-19T13:43:19.549Z,9.60
2019-03-19T13:50:44.896Z,9.70
2019-03-19T13:53:13.932Z,9.80
2019-03-19T13:55:42.699Z,9.90
2019-03-19T13:58:11.451Z,9.90
2019-03-19T14:00:40.257Z,9.80
2019-03-19T14:03:09.085Z,9.80
2019-03-19T14:08:06.215Z,10.00
2019-03-19T14:10:34.958Z,10.00
2019-03-19T14:20:28.675Z,10.00
2019-03-19T14:22:57.513Z,10.10
2019-03-19T14:27:54.630Z,9.90
2019-03-19T14:30:23.477Z,9.90
2019-03-19T14:35:20.888Z,10.10
2019-03-19T14:42:46.579Z,10.20
2019-03-19T14:45:15.802Z,10.10
2019-03-19T14:47:44.565Z,10.20
2019-03-19T14:50:14.454Z,10.10
2019-03-19T14:52:44.096Z,10.10
2019-03-19T14:55:13.197Z,10.20
2019-03-19T14:57:42.121Z,10.20
2019-03-19T15:00:12.882Z,10.20
2019-03-19T15:02:41.704Z,10.20
2019-03-19T15:05:11.404Z,10.20
2019-03-19T15:07:40.217Z,10.30
2019-03-19T15:15:07.786Z,10.30
2019-03-19T15:17:36.516Z,10.30
2019-03-19T15:20:07.109Z,10.30
2019-03-19T15:22:36.149Z,10.10
2019-03-19T15:30:01.649Z,10.00
2019-03-19T15:32:30.401Z,10.10
2019-03-19T15:34:59.170Z,10.00
2019-03-19T15:42:25.382Z,9.90
2019-03-19T15:49:50.980Z,9.80
2019-03-19T15:52:19.980Z,9.70
2019-03-19T15:54:48.732Z,9.70
2019-03-19T15:57:17.464Z,9.70
2019-03-19T16:02:14.505Z,9.70
2019-03-19T16:07:11.625Z,9.70
2019-03-19T16:14:36.957Z,9.70
2019-03-19T16:19:34.334Z,9.70
2019-03-19T16:22:03.158Z,9.70
2019-03-19T16:24:31.890Z,9.60
2019-03-19T16:27:00.656Z,9.60
2019-03-19T16:29:29.395Z,9.50
2019-03-19T16:31:58.149Z,9.50
2019-03-19T16:34:26.882Z,9.50
2019-03-19T16:36:55.619Z,9.40
2019-03-19T16:46:49.561Z,9.30
2019-03-19T16:51:46.678Z,9.30
2019-03-19T16:56:43.735Z,9.20
2019-03-19T17:01:42.031Z,9.30
2019-03-19T17:04:11.058Z,9.40
2019-03-19T17:11:36.489Z,9.60
2019-03-19T17:14:05.557Z,9.70
2019-03-19T17:24:00.888Z,9.60
2019-03-19T17:28:58.093Z,9.60
2019-03-19T17:53:42.638Z,8.30
2019-03-19T17:56:11.477Z,8.00
2019-03-19T18:01:17.120Z,7.50
2019-03-19T18:08:35.981Z,7.10
2019-03-19T18:11:04.866Z,6.80
2019-03-19T18:13:33.637Z,6.70
2019-03-19T18:18:30.773Z,6.40
2019-03-19T18:23:29.515Z,6.20
2019-03-19T18:25:58.374Z,6.10
2019-03-19T18:28:27.153Z,6.00
2019-03-19T18:30:55.915Z,6.00
2019-03-19T18:33:24.661Z,5.80
2019-03-19T18:35:56.189Z,5.70
2019-03-19T18:40:52.737Z,5.60
2019-03-19T18:48:18.453Z,5.30
2019-03-19T18:50:47.339Z,5.20
2019-03-19T18:55:44.663Z,5.10
2019-03-19T18:58:13.742Z,5.00
2019-03-19T19:00:42.565Z,5.00
2019-03-19T19:03:11.369Z,4.90
2019-03-19T19:08:08.610Z,4.80
2019-03-19T19:10:37.724Z,4.70
2019-03-19T19:13:06.593Z,4.60
2019-03-19T19:15:35.353Z,4.50
2019-03-19T19:20:32.497Z,4.40
2019-03-19T19:23:02.948Z,4.40
2019-03-19T19:25:32.010Z,4.30
2019-03-19T19:28:00.774Z,4.30
2019-03-19T19:30:29.636Z,4.20
2019-03-19T19:33:01.888Z,4.10
2019-03-19T19:35:28.972Z,4.00
2019-03-19T19:40:26.239Z,3.90
2019-03-19T19:42:55.080Z,3.90
2019-03-19T19:50:23.104Z,3.70
2019-03-19T19:52:51.854Z,3.70
2019-03-19T19:55:20.750Z,3.60
2019-03-19T19:57:49.605Z,3.60
2019-03-19T20:00:18.681Z,3.50
2019-03-19T20:02:47.565Z,3.60
2019-03-19T20:05:16.625Z,3.60
2019-03-19T20:07:45.830Z,3.60
2019-03-19T20:17:40.790Z,3.30
2019-03-19T20:22:39.045Z,3.30
2019-03-19T20:25:07.991Z,3.20
2019-03-19T20:27:36.729Z,3.10
2019-03-19T20:30:07.433Z,3.10
2019-03-19T20:32:36.185Z,3.10
2019-03-19T20:35:06.141Z,3.00
2019-03-19T20:37:34.906Z,3.00
2019-03-19T20:40:04.136Z,3.00
2019-03-19T20:45:01.266Z,2.90
2019-03-19T20:47:30.015Z,2.80
2019-03-19T20:49:58.788Z,2.80
2019-03-19T20:52:27.610Z,2.80
2019-03-19T20:54:56.366Z,2.70
2019-03-19T20:57:26.409Z,2.70
2019-03-19T21:02:23.505Z,2.60
2019-03-19T21:04:52.243Z,2.60
2019-03-19T21:07:21.015Z,2.60
2019-03-19T21:09:49.783Z,2.50
2019-03-19T21:12:18.616Z,2.50
2019-03-19T21:14:47.504Z,2.60
2019-03-19T21:17:16.252Z,2.60
2019-03-19T21:19:45.037Z,2.60
2019-03-19T21:22:15.261Z,2.60
2019-03-19T21:27:12.325Z,2.50
2019-03-19T21:29:41.073Z,2.40
2019-03-19T21:32:09.891Z,2.50
2019-03-19T21:34:38.649Z,2.50
2019-03-19T21:37:07.409Z,2.40
2019-03-19T21:42:04.770Z,2.30
2019-03-19T21:44:33.738Z,2.30
2019-03-19T21:47:02.501Z,2.20
2019-03-19T21:49:31.254Z,2.20
2019-03-19T21:52:00.010Z,2.20
2019-03-19T21:54:28.776Z,2.20
2019-03-19T21:56:57.764Z,2.10
2019-03-19T21:59:26.588Z,2.00
2019-03-19T22:01:55.356Z,2.00
2019-03-19T22:04:24.157Z,1.90
2019-03-19T22:06:52.907Z,1.90
2019-03-19T22:09:21.723Z,1.80
2019-03-19T22:11:50.523Z,1.80
2019-03-19T22:14:19.513Z,1.90
2019-03-19T22:16:48.349Z,1.80
2019-03-19T22:19:17.129Z,1.80
2019-03-19T22:21:45.913Z,1.80
2019-03-19T22:24:14.891Z,1.80
2019-03-19T22:26:43.684Z,1.80
2019-03-19T22:29:12.857Z,1.60
2019-03-19T22:31:41.682Z,1.60
2019-03-19T22:36:40.457Z,1.50
2019-03-19T22:39:09.604Z,1.50
2019-03-19T22:41:38.597Z,1.50
2019-03-19T22:44:07.440Z,1.40
2019-03-19T22:46:36.173Z,1.50
2019-03-19T22:49:06.358Z,1.50
2019-03-19T22:54:03.802Z,1.40
2019-03-19T22:56:32.535Z,1.40
2019-03-19T22:59:01.293Z,1.40
2019-03-19T23:03:58.377Z,1.30
2019-03-19T23:06:27.201Z,1.30
2019-03-19T23:08:55.950Z,1.30
2019-03-19T23:11:24.850Z,1.30
2019-03-19T23:13:53.741Z,1.20
2019-03-19T23:18:50.942Z,1.30
2019-03-19T23:21:19.673Z,1.30
2019-03-19T23:23:48.574Z,1.20
2019-03-19T23:26:17.393Z,1.20
2019-03-19T23:28:46.374Z,1.10
2019-03-19T23:31:15.189Z,1.20
2019-03-19T23:33:43.965Z,1.10
2019-03-19T23:36:12.750Z,1.10
2019-03-19T23:38:41.485Z,1.10
2019-03-19T23:41:12.337Z,1.10
2019-03-19T23:43:41.085Z,1.10
2019-03-19T23:46:10.061Z,1.10
2019-03-19T23:48:38.844Z,1.00
2019-03-19T23:51:07.593Z,1.00
2019-03-19T23:53:36.564Z,1.00
2019-03-19T23:56:05.448Z,0.90
2019-03-19T23:58:34.198Z,0.90
